Maple Valley, Ohio
Current Conditions -  °F | °C
As of 10:54 PM on Tuesday 25 Nov 2014 (Local Time) from KAKR Reporting Station
Overcast Overcast  
Wind Chill: 29°   Ceiling: 2700
Heat Index: 33°   Visibility: 10mi
Dew Point: 26°   Wind: 5mph
Humidity: 75%   Direction: 340°NNW
Pressure: 30.17"   Gusts: NA
Location:  41.0789°N, 81.5822°W
Report Text: KAKR 260354Z AUTO 34004KT 10SM OVC027 01/M03 A3017 RMK AO2 SLP226 T00061033
Loading
Personal Weather Stations






























Interactive Weather Map New forecast layout! Learn more

10-Day Weather Forecast

Advertisements
Track Severe Weather on mobile